sensor_id;sensor_type;location;lat;lon;timestamp;P1;durP1;ratioP1;P2;durP2;ratioP2
39930;SDS011;26635;-35.248;149.138;2023-04-15T00:00:27;1.25;;;0.40;;
39930;SDS011;26635;-35.248;149.138;2023-04-15T00:02:57;2.83;;;0.93;;
39930;SDS011;26635;-35.248;149.138;2023-04-15T00:05:32;0.82;;;0.30;;
39930;SDS011;26635;-35.248;149.138;2023-04-15T00:08:03;1.85;;;0.45;;
39930;SDS011;26635;-35.248;149.138;2023-04-15T00:10:35;4.18;;;1.10;;
39930;SDS011;26635;-35.248;149.138;2023-04-15T00:13:05;3.67;;;0.60;;
39930;SDS011;26635;-35.248;149.138;2023-04-15T00:15:36;2.28;;;0.30;;
39930;SDS011;26635;-35.248;149.138;2023-04-15T00:18:07;3.00;;;0.43;;
39930;SDS011;26635;-35.248;149.138;2023-04-15T00:20:38;0.68;;;0.38;;
39930;SDS011;26635;-35.248;149.138;2023-04-15T00:23:09;3.95;;;0.50;;
39930;SDS011;26635;-35.248;149.138;2023-04-15T00:25:39;0.85;;;0.20;;
39930;SDS011;26635;-35.248;149.138;2023-04-15T00:28:09;1.40;;;0.52;;
39930;SDS011;26635;-35.248;149.138;2023-04-15T00:30:41;2.25;;;0.20;;
39930;SDS011;26635;-35.248;149.138;2023-04-15T00:33:12;1.75;;;0.70;;
39930;SDS011;26635;-35.248;149.138;2023-04-15T00:35:44;1.10;;;0.25;;
39930;SDS011;26635;-35.248;149.138;2023-04-15T00:38:14;2.65;;;0.70;;
39930;SDS011;26635;-35.248;149.138;2023-04-15T00:40:55;1.42;;;0.45;;
39930;SDS011;26635;-35.248;149.138;2023-04-15T00:43:26;1.00;;;0.25;;
39930;SDS011;26635;-35.248;149.138;2023-04-15T00:45:57;1.05;;;0.20;;
39930;SDS011;26635;-35.248;149.138;2023-04-15T00:48:30;2.42;;;0.28;;
39930;SDS011;26635;-35.248;149.138;2023-04-15T00:51:01;0.60;;;0.20;;
39930;SDS011;26635;-35.248;149.138;2023-04-15T00:53:32;0.38;;;0.30;;
39930;SDS011;26635;-35.248;149.138;2023-04-15T00:56:03;3.08;;;0.30;;
39930;SDS011;26635;-35.248;149.138;2023-04-15T00:58:36;1.25;;;0.17;;
39930;SDS011;26635;-35.248;149.138;2023-04-15T01:01:06;1.85;;;0.60;;
39930;SDS011;26635;-35.248;149.138;2023-04-15T01:03:38;1.10;;;0.38;;
39930;SDS011;26635;-35.248;149.138;2023-04-15T01:06:09;0.70;;;0.30;;
39930;SDS011;26635;-35.248;149.138;2023-04-15T01:08:43;0.45;;;0.20;;
39930;SDS011;26635;-35.248;149.138;2023-04-15T01:11:14;1.90;;;0.30;;
39930;SDS011;26635;-35.248;149.138;2023-04-15T01:13:46;0.40;;;0.20;;
39930;SDS011;26635;-35.248;149.138;2023-04-15T01:16:17;1.00;;;0.30;;
39930;SDS011;26635;-35.248;149.138;2023-04-15T01:18:48;1.95;;;0.40;;
39930;SDS011;26635;-35.248;149.138;2023-04-15T01:21:20;1.90;;;0.63;;
39930;SDS011;26635;-35.248;149.138;2023-04-15T01:23:51;1.13;;;0.30;;
39930;SDS011;26635;-35.248;149.138;2023-04-15T01:26:25;1.42;;;0.90;;
39930;SDS011;26635;-35.248;149.138;2023-04-15T01:28:55;1.45;;;0.30;;
39930;SDS011;26635;-35.248;149.138;2023-04-15T01:31:26;1.73;;;0.40;;
39930;SDS011;26635;-35.248;149.138;2023-04-15T01:33:57;2.00;;;0.40;;
39930;SDS011;26635;-35.248;149.138;2023-04-15T01:36:31;1.10;;;0.20;;
39930;SDS011;26635;-35.248;149.138;2023-04-15T01:39:36;1.48;;;0.30;;
39930;SDS011;26635;-35.248;149.138;2023-04-15T01:42:23;1.27;;;0.55;;
39930;SDS011;26635;-35.248;149.138;2023-04-15T01:45:05;1.50;;;0.40;;
39930;SDS011;26635;-35.248;149.138;2023-04-15T01:51:21;1.52;;;0.30;;
39930;SDS011;26635;-35.248;149.138;2023-04-15T01:54:11;4.85;;;1.42;;
39930;SDS011;26635;-35.248;149.138;2023-04-15T01:57:26;2.47;;;0.85;;
39930;SDS011;26635;-35.248;149.138;2023-04-15T02:00:15;1.80;;;0.30;;
39930;SDS011;26635;-35.248;149.138;2023-04-15T02:03:20;1.15;;;0.40;;
39930;SDS011;26635;-35.248;149.138;2023-04-15T02:06:14;1.05;;;0.30;;
39930;SDS011;26635;-35.248;149.138;2023-04-15T02:09:29;1.45;;;0.57;;
39930;SDS011;26635;-35.248;149.138;2023-04-15T02:12:42;2.65;;;0.40;;
39930;SDS011;26635;-35.248;149.138;2023-04-15T02:15:23;1.13;;;0.35;;
39930;SDS011;26635;-35.248;149.138;2023-04-15T02:18:00;1.13;;;0.43;;
39930;SDS011;26635;-35.248;149.138;2023-04-15T02:21:05;1.45;;;0.30;;
39930;SDS011;26635;-35.248;149.138;2023-04-15T02:24:15;2.83;;;0.50;;
39930;SDS011;26635;-35.248;149.138;2023-04-15T02:27:24;0.90;;;0.25;;
39930;SDS011;26635;-35.248;149.138;2023-04-15T02:30:14;2.45;;;0.32;;
39930;SDS011;26635;-35.248;149.138;2023-04-15T02:33:05;1.38;;;0.20;;
39930;SDS011;26635;-35.248;149.138;2023-04-15T02:36:05;0.88;;;0.20;;
39930;SDS011;26635;-35.248;149.138;2023-04-15T02:38:46;1.30;;;0.30;;
39930;SDS011;26635;-35.248;149.138;2023-04-15T02:41:23;2.05;;;0.30;;
39930;SDS011;26635;-35.248;149.138;2023-04-15T02:44:15;1.02;;;0.20;;
39930;SDS011;26635;-35.248;149.138;2023-04-15T02:46:54;0.95;;;0.75;;
39930;SDS011;26635;-35.248;149.138;2023-04-15T02:49:33;1.40;;;0.30;;
39930;SDS011;26635;-35.248;149.138;2023-04-15T02:52:10;1.13;;;0.70;;
39930;SDS011;26635;-35.248;149.138;2023-04-15T02:54:51;1.45;;;0.40;;
39930;SDS011;26635;-35.248;149.138;2023-04-15T02:57:36;0.88;;;0.20;;
39930;SDS011;26635;-35.248;149.138;2023-04-15T03:00:08;2.05;;;0.30;;
39930;SDS011;26635;-35.248;149.138;2023-04-15T03:02:41;1.10;;;0.30;;
39930;SDS011;26635;-35.248;149.138;2023-04-15T03:05:24;2.75;;;0.70;;
39930;SDS011;26635;-35.248;149.138;2023-04-15T03:08:14;1.00;;;0.20;;
39930;SDS011;26635;-35.248;149.138;2023-04-15T03:10:51;0.82;;;0.28;;
39930;SDS011;26635;-35.248;149.138;2023-04-15T03:13:28;0.75;;;0.20;;
39930;SDS011;26635;-35.248;149.138;2023-04-15T03:16:11;2.03;;;0.32;;
39930;SDS011;26635;-35.248;149.138;2023-04-15T03:18:58;2.13;;;0.28;;
39930;SDS011;26635;-35.248;149.138;2023-04-15T03:21:30;0.82;;;0.50;;
39930;SDS011;26635;-35.248;149.138;2023-04-15T03:24:09;1.48;;;0.20;;
39930;SDS011;26635;-35.248;149.138;2023-04-15T03:26:43;1.20;;;0.40;;
39930;SDS011;26635;-35.248;149.138;2023-04-15T03:29:16;0.80;;;0.32;;
39930;SDS011;26635;-35.248;149.138;2023-04-15T03:31:48;0.70;;;0.20;;
39930;SDS011;26635;-35.248;149.138;2023-04-15T03:34:20;1.20;;;0.30;;
39930;SDS011;26635;-35.248;149.138;2023-04-15T03:36:51;0.50;;;0.20;;
39930;SDS011;26635;-35.248;149.138;2023-04-15T03:39:25;1.55;;;0.17;;
39930;SDS011;26635;-35.248;149.138;2023-04-15T03:41:59;1.20;;;0.20;;
39930;SDS011;26635;-35.248;149.138;2023-04-15T03:44:33;0.80;;;0.20;;
39930;SDS011;26635;-35.248;149.138;2023-04-15T03:47:09;2.20;;;0.20;;
39930;SDS011;26635;-35.248;149.138;2023-04-15T03:49:40;1.55;;;0.45;;
39930;SDS011;26635;-35.248;149.138;2023-04-15T03:52:10;0.85;;;0.20;;
39930;SDS011;26635;-35.248;149.138;2023-04-15T03:54:42;1.42;;;0.47;;
39930;SDS011;26635;-35.248;149.138;2023-04-15T03:57:14;0.75;;;0.30;;
39930;SDS011;26635;-35.248;149.138;2023-04-15T03:59:44;1.50;;;0.40;;
39930;SDS011;26635;-35.248;149.138;2023-04-15T04:02:16;1.00;;;0.65;;
39930;SDS011;26635;-35.248;149.138;2023-04-15T04:04:51;1.73;;;0.45;;
39930;SDS011;26635;-35.248;149.138;2023-04-15T04:07:23;1.77;;;0.50;;
39930;SDS011;26635;-35.248;149.138;2023-04-15T04:09:56;4.03;;;1.75;;
39930;SDS011;26635;-35.248;149.138;2023-04-15T04:12:27;2.80;;;0.98;;
39930;SDS011;26635;-35.248;149.138;2023-04-15T04:14:58;4.60;;;1.35;;
39930;SDS011;26635;-35.248;149.138;2023-04-15T04:17:29;2.05;;;1.20;;
39930;SDS011;26635;-35.248;149.138;2023-04-15T04:20:00;1.65;;;1.45;;
39930;SDS011;26635;-35.248;149.138;2023-04-15T04:22:36;2.85;;;1.13;;
39930;SDS011;26635;-35.248;149.138;2023-04-15T04:25:10;2.75;;;1.70;;
39930;SDS011;26635;-35.248;149.138;2023-04-15T04:27:41;2.45;;;1.35;;
39930;SDS011;26635;-35.248;149.138;2023-04-15T04:30:12;3.05;;;1.15;;
39930;SDS011;26635;-35.248;149.138;2023-04-15T04:32:43;1.63;;;0.68;;
39930;SDS011;26635;-35.248;149.138;2023-04-15T04:35:14;3.15;;;0.88;;
39930;SDS011;26635;-35.248;149.138;2023-04-15T04:37:45;2.10;;;0.93;;
39930;SDS011;26635;-35.248;149.138;2023-04-15T04:40:15;1.83;;;0.45;;
39930;SDS011;26635;-35.248;149.138;2023-04-15T04:42:49;1.73;;;0.45;;
39930;SDS011;26635;-35.248;149.138;2023-04-15T04:45:19;1.38;;;0.32;;
39930;SDS011;26635;-35.248;149.138;2023-04-15T04:47:50;1.80;;;0.50;;
39930;SDS011;26635;-35.248;149.138;2023-04-15T04:50:21;2.05;;;0.75;;
39930;SDS011;26635;-35.248;149.138;2023-04-15T04:52:51;1.40;;;0.73;;
39930;SDS011;26635;-35.248;149.138;2023-04-15T04:55:21;0.70;;;0.38;;
39930;SDS011;26635;-35.248;149.138;2023-04-15T04:57:52;1.20;;;0.50;;
39930;SDS011;26635;-35.248;149.138;2023-04-15T05:00:23;1.65;;;0.85;;
39930;SDS011;26635;-35.248;149.138;2023-04-15T05:02:53;1.35;;;0.60;;
39930;SDS011;26635;-35.248;149.138;2023-04-15T05:05:25;1.52;;;0.90;;
39930;SDS011;26635;-35.248;149.138;2023-04-15T05:07:55;3.45;;;0.88;;
39930;SDS011;26635;-35.248;149.138;2023-04-15T05:10:27;2.72;;;1.35;;
39930;SDS011;26635;-35.248;149.138;2023-04-15T05:12:57;1.58;;;0.90;;
39930;SDS011;26635;-35.248;149.138;2023-04-15T05:15:27;2.92;;;1.10;;
39930;SDS011;26635;-35.248;149.138;2023-04-15T05:17:59;1.77;;;0.85;;
39930;SDS011;26635;-35.248;149.138;2023-04-15T05:20:30;1.95;;;0.90;;
39930;SDS011;26635;-35.248;149.138;2023-04-15T05:23:00;1.33;;;0.70;;
39930;SDS011;26635;-35.248;149.138;2023-04-15T05:25:31;1.20;;;0.70;;
39930;SDS011;26635;-35.248;149.138;2023-04-15T05:28:01;1.02;;;0.80;;
39930;SDS011;26635;-35.248;149.138;2023-04-15T05:30:32;3.10;;;1.10;;
39930;SDS011;26635;-35.248;149.138;2023-04-15T05:33:03;2.03;;;1.05;;
39930;SDS011;26635;-35.248;149.138;2023-04-15T05:35:34;1.48;;;1.00;;
39930;SDS011;26635;-35.248;149.138;2023-04-15T05:38:04;3.72;;;1.60;;
39930;SDS011;26635;-35.248;149.138;2023-04-15T05:40:35;4.13;;;2.00;;
39930;SDS011;26635;-35.248;149.138;2023-04-15T05:43:05;2.60;;;1.20;;
39930;SDS011;26635;-35.248;149.138;2023-04-15T05:45:36;3.33;;;1.48;;
39930;SDS011;26635;-35.248;149.138;2023-04-15T05:48:06;2.35;;;1.10;;
39930;SDS011;26635;-35.248;149.138;2023-04-15T05:50:39;1.45;;;0.90;;
39930;SDS011;26635;-35.248;149.138;2023-04-15T05:53:10;2.83;;;0.95;;
39930;SDS011;26635;-35.248;149.138;2023-04-15T05:55:40;1.10;;;0.80;;
39930;SDS011;26635;-35.248;149.138;2023-04-15T05:58:10;2.55;;;0.70;;
39930;SDS011;26635;-35.248;149.138;2023-04-15T06:00:41;1.00;;;0.40;;
39930;SDS011;26635;-35.248;149.138;2023-04-15T06:03:16;2.15;;;0.60;;
39930;SDS011;26635;-35.248;149.138;2023-04-15T06:05:47;1.15;;;0.28;;
39930;SDS011;26635;-35.248;149.138;2023-04-15T06:08:18;1.48;;;0.45;;
39930;SDS011;26635;-35.248;149.138;2023-04-15T06:10:57;0.98;;;0.52;;
39930;SDS011;26635;-35.248;149.138;2023-04-15T06:13:29;2.28;;;1.30;;
39930;SDS011;26635;-35.248;149.138;2023-04-15T06:15:59;1.70;;;0.82;;
39930;SDS011;26635;-35.248;149.138;2023-04-15T06:18:31;2.30;;;1.10;;
39930;SDS011;26635;-35.248;149.138;2023-04-15T06:21:38;2.00;;;0.80;;
39930;SDS011;26635;-35.248;149.138;2023-04-15T06:24:20;3.45;;;1.35;;
39930;SDS011;26635;-35.248;149.138;2023-04-15T06:27:22;2.42;;;1.38;;
39930;SDS011;26635;-35.248;149.138;2023-04-15T06:29:53;2.33;;;1.58;;
39930;SDS011;26635;-35.248;149.138;2023-04-15T06:32:24;2.35;;;1.45;;
39930;SDS011;26635;-35.248;149.138;2023-04-15T06:34:55;3.10;;;1.20;;
39930;SDS011;26635;-35.248;149.138;2023-04-15T06:37:27;2.50;;;1.15;;
39930;SDS011;26635;-35.248;149.138;2023-04-15T06:40:02;2.42;;;0.73;;
39930;SDS011;26635;-35.248;149.138;2023-04-15T06:42:32;1.60;;;0.70;;
39930;SDS011;26635;-35.248;149.138;2023-04-15T06:45:04;2.15;;;0.75;;
39930;SDS011;26635;-35.248;149.138;2023-04-15T06:47:37;1.45;;;0.57;;
39930;SDS011;26635;-35.248;149.138;2023-04-15T06:50:08;1.92;;;0.80;;
39930;SDS011;26635;-35.248;149.138;2023-04-15T06:52:41;2.65;;;0.57;;
39930;SDS011;26635;-35.248;149.138;2023-04-15T06:55:12;1.58;;;0.80;;
39930;SDS011;26635;-35.248;149.138;2023-04-15T06:57:43;2.85;;;0.50;;
39930;SDS011;26635;-35.248;149.138;2023-04-15T07:00:14;1.25;;;0.80;;
39930;SDS011;26635;-35.248;149.138;2023-04-15T07:02:47;3.13;;;0.70;;
39930;SDS011;26635;-35.248;149.138;2023-04-15T07:05:17;2.60;;;0.77;;
39930;SDS011;26635;-35.248;149.138;2023-04-15T07:07:49;2.65;;;1.58;;
39930;SDS011;26635;-35.248;149.138;2023-04-15T07:10:22;3.00;;;1.77;;
39930;SDS011;26635;-35.248;149.138;2023-04-15T07:12:54;2.10;;;1.17;;
39930;SDS011;26635;-35.248;149.138;2023-04-15T07:15:25;1.35;;;0.82;;
39930;SDS011;26635;-35.248;149.138;2023-04-15T07:17:56;2.83;;;1.23;;
39930;SDS011;26635;-35.248;149.138;2023-04-15T07:20:29;2.22;;;1.20;;
39930;SDS011;26635;-35.248;149.138;2023-04-15T07:23:00;2.33;;;1.00;;
39930;SDS011;26635;-35.248;149.138;2023-04-15T07:25:31;3.13;;;1.27;;
39930;SDS011;26635;-35.248;149.138;2023-04-15T07:28:01;3.15;;;1.40;;
39930;SDS011;26635;-35.248;149.138;2023-04-15T07:30:34;4.90;;;1.88;;
39930;SDS011;26635;-35.248;149.138;2023-04-15T07:33:05;3.70;;;1.85;;
39930;SDS011;26635;-35.248;149.138;2023-04-15T07:35:35;2.92;;;1.60;;
39930;SDS011;26635;-35.248;149.138;2023-04-15T07:38:06;2.80;;;1.80;;
39930;SDS011;26635;-35.248;149.138;2023-04-15T07:40:37;3.42;;;2.13;;
39930;SDS011;26635;-35.248;149.138;2023-04-15T07:43:08;2.70;;;1.80;;
39930;SDS011;26635;-35.248;149.138;2023-04-15T07:45:38;3.20;;;1.73;;
39930;SDS011;26635;-35.248;149.138;2023-04-15T07:48:09;2.90;;;1.77;;
39930;SDS011;26635;-35.248;149.138;2023-04-15T07:50:42;4.18;;;2.45;;
39930;SDS011;26635;-35.248;149.138;2023-04-15T07:53:13;5.53;;;2.40;;
39930;SDS011;26635;-35.248;149.138;2023-04-15T07:55:44;3.38;;;2.35;;
39930;SDS011;26635;-35.248;149.138;2023-04-15T07:58:15;5.07;;;2.38;;
39930;SDS011;26635;-35.248;149.138;2023-04-15T08:00:45;4.50;;;2.53;;
39930;SDS011;26635;-35.248;149.138;2023-04-15T08:03:16;3.33;;;2.22;;
39930;SDS011;26635;-35.248;149.138;2023-04-15T08:05:48;5.40;;;2.40;;
39930;SDS011;26635;-35.248;149.138;2023-04-15T08:08:22;5.00;;;2.50;;
39930;SDS011;26635;-35.248;149.138;2023-04-15T08:10:57;3.95;;;2.33;;
39930;SDS011;26635;-35.248;149.138;2023-04-15T08:13:29;4.00;;;2.03;;
39930;SDS011;26635;-35.248;149.138;2023-04-15T08:18:51;4.18;;;2.35;;
39930;SDS011;26635;-35.248;149.138;2023-04-15T08:21:25;5.20;;;2.63;;
39930;SDS011;26635;-35.248;149.138;2023-04-15T08:23:58;5.80;;;2.22;;
39930;SDS011;26635;-35.248;149.138;2023-04-15T08:26:31;3.47;;;1.90;;
39930;SDS011;26635;-35.248;149.138;2023-04-15T08:29:04;3.67;;;2.50;;
39930;SDS011;26635;-35.248;149.138;2023-04-15T08:31:35;3.45;;;2.10;;
39930;SDS011;26635;-35.248;149.138;2023-04-15T08:34:05;5.18;;;2.33;;
39930;SDS011;26635;-35.248;149.138;2023-04-15T08:36:36;6.60;;;2.33;;
39930;SDS011;26635;-35.248;149.138;2023-04-15T08:39:07;2.95;;;1.88;;
39930;SDS011;26635;-35.248;149.138;2023-04-15T08:41:39;4.60;;;2.15;;
39930;SDS011;26635;-35.248;149.138;2023-04-15T08:44:32;4.55;;;2.22;;
39930;SDS011;26635;-35.248;149.138;2023-04-15T08:47:06;5.55;;;3.70;;
39930;SDS011;26635;-35.248;149.138;2023-04-15T08:49:39;6.97;;;4.30;;
39930;SDS011;26635;-35.248;149.138;2023-04-15T08:52:12;7.50;;;4.75;;
39930;SDS011;26635;-35.248;149.138;2023-04-15T08:54:44;6.35;;;5.00;;
39930;SDS011;26635;-35.248;149.138;2023-04-15T08:57:17;6.00;;;3.42;;
39930;SDS011;26635;-35.248;149.138;2023-04-15T08:59:48;5.18;;;2.75;;
39930;SDS011;26635;-35.248;149.138;2023-04-15T09:02:20;4.38;;;2.80;;
39930;SDS011;26635;-35.248;149.138;2023-04-15T09:04:54;4.55;;;3.05;;
39930;SDS011;26635;-35.248;149.138;2023-04-15T09:07:26;6.25;;;2.60;;
39930;SDS011;26635;-35.248;149.138;2023-04-15T09:10:09;4.30;;;2.80;;
39930;SDS011;26635;-35.248;149.138;2023-04-15T09:12:40;5.00;;;3.28;;
39930;SDS011;26635;-35.248;149.138;2023-04-15T09:15:10;5.15;;;3.15;;
39930;SDS011;26635;-35.248;149.138;2023-04-15T09:17:42;6.72;;;4.15;;
39930;SDS011;26635;-35.248;149.138;2023-04-15T09:20:15;7.28;;;4.43;;
39930;SDS011;26635;-35.248;149.138;2023-04-15T09:22:50;4.95;;;3.25;;
39930;SDS011;26635;-35.248;149.138;2023-04-15T09:27:53;4.85;;;2.97;;
39930;SDS011;26635;-35.248;149.138;2023-04-15T09:30:30;4.82;;;3.80;;
39930;SDS011;26635;-35.248;149.138;2023-04-15T09:33:02;5.85;;;3.95;;
39930;SDS011;26635;-35.248;149.138;2023-04-15T09:35:38;5.55;;;3.67;;
39930;SDS011;26635;-35.248;149.138;2023-04-15T09:38:09;5.13;;;2.92;;
39930;SDS011;26635;-35.248;149.138;2023-04-15T09:40:41;5.03;;;3.10;;
39930;SDS011;26635;-35.248;149.138;2023-04-15T09:43:11;6.35;;;4.13;;
39930;SDS011;26635;-35.248;149.138;2023-04-15T09:45:47;7.13;;;3.42;;
39930;SDS011;26635;-35.248;149.138;2023-04-15T09:48:22;6.35;;;3.15;;
39930;SDS011;26635;-35.248;149.138;2023-04-15T09:51:00;7.03;;;3.47;;
39930;SDS011;26635;-35.248;149.138;2023-04-15T09:53:32;5.72;;;3.30;;
39930;SDS011;26635;-35.248;149.138;2023-04-15T09:56:04;6.18;;;2.47;;
39930;SDS011;26635;-35.248;149.138;2023-04-15T09:58:36;3.72;;;2.30;;
39930;SDS011;26635;-35.248;149.138;2023-04-15T10:01:10;3.58;;;2.50;;
39930;SDS011;26635;-35.248;149.138;2023-04-15T10:03:42;4.50;;;2.97;;
39930;SDS011;26635;-35.248;149.138;2023-04-15T10:06:16;4.20;;;2.20;;
39930;SDS011;26635;-35.248;149.138;2023-04-15T10:08:48;4.03;;;1.77;;
39930;SDS011;26635;-35.248;149.138;2023-04-15T10:11:20;2.90;;;1.98;;
39930;SDS011;26635;-35.248;149.138;2023-04-15T10:13:52;4.57;;;1.88;;
39930;SDS011;26635;-35.248;149.138;2023-04-15T10:16:25;4.50;;;1.95;;
39930;SDS011;26635;-35.248;149.138;2023-04-15T10:18:57;4.28;;;2.00;;
39930;SDS011;26635;-35.248;149.138;2023-04-15T10:21:32;2.38;;;1.85;;
39930;SDS011;26635;-35.248;149.138;2023-04-15T10:24:05;3.65;;;1.98;;
39930;SDS011;26635;-35.248;149.138;2023-04-15T10:26:37;3.58;;;1.55;;
39930;SDS011;26635;-35.248;149.138;2023-04-15T10:29:08;5.53;;;1.58;;
39930;SDS011;26635;-35.248;149.138;2023-04-15T10:31:40;2.97;;;1.42;;
39930;SDS011;26635;-35.248;149.138;2023-04-15T10:34:12;3.05;;;1.50;;
39930;SDS011;26635;-35.248;149.138;2023-04-15T10:36:44;3.33;;;1.50;;
39930;SDS011;26635;-35.248;149.138;2023-04-15T10:42:06;3.03;;;1.35;;
39930;SDS011;26635;-35.248;149.138;2023-04-15T10:44:57;5.35;;;1.60;;
39930;SDS011;26635;-35.248;149.138;2023-04-15T10:47:30;3.65;;;1.33;;
39930;SDS011;26635;-35.248;149.138;2023-04-15T10:50:03;2.35;;;1.35;;
39930;SDS011;26635;-35.248;149.138;2023-04-15T10:52:36;3.22;;;1.33;;
39930;SDS011;26635;-35.248;149.138;2023-04-15T10:55:13;2.38;;;1.10;;
39930;SDS011;26635;-35.248;149.138;2023-04-15T10:57:53;1.88;;;1.23;;
39930;SDS011;26635;-35.248;149.138;2023-04-15T11:00:32;3.85;;;1.50;;
39930;SDS011;26635;-35.248;149.138;2023-04-15T11:03:08;3.30;;;1.48;;
39930;SDS011;26635;-35.248;149.138;2023-04-15T11:08:13;3.42;;;1.45;;
39930;SDS011;26635;-35.248;149.138;2023-04-15T11:13:16;4.88;;;1.20;;
39930;SDS011;26635;-35.248;149.138;2023-04-15T11:15:56;2.38;;;1.25;;
39930;SDS011;26635;-35.248;149.138;2023-04-15T11:18:31;4.35;;;1.50;;
39930;SDS011;26635;-35.248;149.138;2023-04-15T11:21:04;3.55;;;1.23;;
39930;SDS011;26635;-35.248;149.138;2023-04-15T11:23:38;3.17;;;1.30;;
39930;SDS011;26635;-35.248;149.138;2023-04-15T11:26:13;4.63;;;1.27;;
39930;SDS011;26635;-35.248;149.138;2023-04-15T11:28:44;3.25;;;1.83;;
39930;SDS011;26635;-35.248;149.138;2023-04-15T11:31:16;3.55;;;1.27;;
39930;SDS011;26635;-35.248;149.138;2023-04-15T11:36:25;3.20;;;1.38;;
39930;SDS011;26635;-35.248;149.138;2023-04-15T11:38:57;2.83;;;1.17;;
39930;SDS011;26635;-35.248;149.138;2023-04-15T11:41:28;2.42;;;1.15;;
39930;SDS011;26635;-35.248;149.138;2023-04-15T11:43:59;1.88;;;1.20;;
39930;SDS011;26635;-35.248;149.138;2023-04-15T11:46:30;3.42;;;1.33;;
39930;SDS011;26635;-35.248;149.138;2023-04-15T11:49:01;3.28;;;1.25;;
39930;SDS011;26635;-35.248;149.138;2023-04-15T11:51:32;2.75;;;1.05;;
39930;SDS011;26635;-35.248;149.138;2023-04-15T11:54:04;2.40;;;1.08;;
39930;SDS011;26635;-35.248;149.138;2023-04-15T11:56:34;2.15;;;0.90;;
39930;SDS011;26635;-35.248;149.138;2023-04-15T11:59:05;3.92;;;1.30;;
39930;SDS011;26635;-35.248;149.138;2023-04-15T12:01:38;3.78;;;1.48;;
39930;SDS011;26635;-35.248;149.138;2023-04-15T12:04:12;3.65;;;1.40;;
39930;SDS011;26635;-35.248;149.138;2023-04-15T12:06:48;3.42;;;1.33;;
39930;SDS011;26635;-35.248;149.138;2023-04-15T12:09:20;2.03;;;1.42;;
39930;SDS011;26635;-35.248;149.138;2023-04-15T12:11:51;3.10;;;1.10;;
39930;SDS011;26635;-35.248;149.138;2023-04-15T12:14:26;3.15;;;1.20;;
39930;SDS011;26635;-35.248;149.138;2023-04-15T12:17:01;3.38;;;1.30;;
39930;SDS011;26635;-35.248;149.138;2023-04-15T12:19:37;2.33;;;1.33;;
39930;SDS011;26635;-35.248;149.138;2023-04-15T12:22:14;4.25;;;1.17;;
39930;SDS011;26635;-35.248;149.138;2023-04-15T12:24:45;2.78;;;1.38;;
39930;SDS011;26635;-35.248;149.138;2023-04-15T12:27:24;3.05;;;1.60;;
39930;SDS011;26635;-35.248;149.138;2023-04-15T12:30:05;4.28;;;2.10;;
39930;SDS011;26635;-35.248;149.138;2023-04-15T12:32:37;5.00;;;1.70;;
39930;SDS011;26635;-35.248;149.138;2023-04-15T12:35:09;3.75;;;2.35;;
39930;SDS011;26635;-35.248;149.138;2023-04-15T12:37:39;4.65;;;2.22;;
39930;SDS011;26635;-35.248;149.138;2023-04-15T12:40:10;3.80;;;1.65;;
39930;SDS011;26635;-35.248;149.138;2023-04-15T12:42:40;4.93;;;1.73;;
39930;SDS011;26635;-35.248;149.138;2023-04-15T12:45:11;4.43;;;1.90;;
39930;SDS011;26635;-35.248;149.138;2023-04-15T12:47:41;3.42;;;1.90;;
39930;SDS011;26635;-35.248;149.138;2023-04-15T12:50:13;3.17;;;2.05;;
39930;SDS011;26635;-35.248;149.138;2023-04-15T12:52:45;4.78;;;2.70;;
39930;SDS011;26635;-35.248;149.138;2023-04-15T12:55:15;2.67;;;1.58;;
39930;SDS011;26635;-35.248;149.138;2023-04-15T12:57:45;2.92;;;1.55;;
39930;SDS011;26635;-35.248;149.138;2023-04-15T13:00:16;3.33;;;1.48;;
39930;SDS011;26635;-35.248;149.138;2023-04-15T13:02:46;3.65;;;1.45;;
39930;SDS011;26635;-35.248;149.138;2023-04-15T13:05:17;4.07;;;1.70;;
39930;SDS011;26635;-35.248;149.138;2023-04-15T13:07:47;2.88;;;1.40;;
39930;SDS011;26635;-35.248;149.138;2023-04-15T13:10:17;2.72;;;1.45;;
39930;SDS011;26635;-35.248;149.138;2023-04-15T13:12:50;3.47;;;1.50;;
39930;SDS011;26635;-35.248;149.138;2023-04-15T13:15:21;2.63;;;1.60;;
39930;SDS011;26635;-35.248;149.138;2023-04-15T13:17:53;6.80;;;2.33;;
39930;SDS011;26635;-35.248;149.138;2023-04-15T13:20:24;3.50;;;2.10;;
39930;SDS011;26635;-35.248;149.138;2023-04-15T13:22:55;4.10;;;2.28;;
39930;SDS011;26635;-35.248;149.138;2023-04-15T13:25:25;4.50;;;1.83;;
39930;SDS011;26635;-35.248;149.138;2023-04-15T13:27:55;4.13;;;1.63;;
39930;SDS011;26635;-35.248;149.138;2023-04-15T13:30:26;3.15;;;2.03;;
39930;SDS011;26635;-35.248;149.138;2023-04-15T13:32:57;5.07;;;1.80;;
39930;SDS011;26635;-35.248;149.138;2023-04-15T13:35:30;3.42;;;1.58;;
39930;SDS011;26635;-35.248;149.138;2023-04-15T13:38:03;5.75;;;2.20;;
39930;SDS011;26635;-35.248;149.138;2023-04-15T13:40:37;4.00;;;1.77;;
39930;SDS011;26635;-35.248;149.138;2023-04-15T13:43:07;3.58;;;1.60;;
39930;SDS011;26635;-35.248;149.138;2023-04-15T13:45:39;2.50;;;1.40;;
39930;SDS011;26635;-35.248;149.138;2023-04-15T13:48:10;5.00;;;1.77;;
39930;SDS011;26635;-35.248;149.138;2023-04-15T13:50:41;2.95;;;1.63;;
39930;SDS011;26635;-35.248;149.138;2023-04-15T13:53:14;2.70;;;1.50;;
39930;SDS011;26635;-35.248;149.138;2023-04-15T13:55:46;4.03;;;1.52;;
39930;SDS011;26635;-35.248;149.138;2023-04-15T13:58:16;4.90;;;2.40;;
39930;SDS011;26635;-35.248;149.138;2023-04-15T14:00:47;3.55;;;1.60;;
39930;SDS011;26635;-35.248;149.138;2023-04-15T14:03:18;2.38;;;1.27;;
39930;SDS011;26635;-35.248;149.138;2023-04-15T14:05:49;3.20;;;1.77;;
39930;SDS011;26635;-35.248;149.138;2023-04-15T14:08:24;3.17;;;1.60;;
39930;SDS011;26635;-35.248;149.138;2023-04-15T14:10:56;4.03;;;1.40;;
39930;SDS011;26635;-35.248;149.138;2023-04-15T14:13:27;4.63;;;1.65;;
39930;SDS011;26635;-35.248;149.138;2023-04-15T14:15:57;2.20;;;1.40;;
39930;SDS011;26635;-35.248;149.138;2023-04-15T14:18:28;2.75;;;1.50;;
39930;SDS011;26635;-35.248;149.138;2023-04-15T14:20:58;3.42;;;1.40;;
39930;SDS011;26635;-35.248;149.138;2023-04-15T14:23:30;3.85;;;1.30;;
39930;SDS011;26635;-35.248;149.138;2023-04-15T14:26:01;2.65;;;1.20;;
39930;SDS011;26635;-35.248;149.138;2023-04-15T14:28:31;2.28;;;1.30;;
39930;SDS011;26635;-35.248;149.138;2023-04-15T14:31:02;2.10;;;1.15;;
39930;SDS011;26635;-35.248;149.138;2023-04-15T14:33:33;2.10;;;1.20;;
39930;SDS011;26635;-35.248;149.138;2023-04-15T14:36:06;1.75;;;1.10;;
39930;SDS011;26635;-35.248;149.138;2023-04-15T14:38:38;2.63;;;1.10;;
39930;SDS011;26635;-35.248;149.138;2023-04-15T14:41:09;1.42;;;0.90;;
39930;SDS011;26635;-35.248;149.138;2023-04-15T14:43:39;3.30;;;1.10;;
39930;SDS011;26635;-35.248;149.138;2023-04-15T14:46:10;2.70;;;0.90;;
39930;SDS011;26635;-35.248;149.138;2023-04-15T14:48:41;2.53;;;1.00;;
39930;SDS011;26635;-35.248;149.138;2023-04-15T14:51:12;2.08;;;1.02;;
39930;SDS011;26635;-35.248;149.138;2023-04-15T14:53:44;1.02;;;0.70;;
39930;SDS011;26635;-35.248;149.138;2023-04-15T14:56:15;2.00;;;0.80;;
39930;SDS011;26635;-35.248;149.138;2023-04-15T14:58:46;1.73;;;1.00;;
39930;SDS011;26635;-35.248;149.138;2023-04-15T15:01:16;2.25;;;1.10;;
39930;SDS011;26635;-35.248;149.138;2023-04-15T15:03:47;3.40;;;1.48;;
39930;SDS011;26635;-35.248;149.138;2023-04-15T15:06:19;2.95;;;1.65;;